createdAt,value
2022-09-25T00:03:50.667Z,7.28
2022-09-25T00:08:59.664Z,7.25
2022-09-25T00:14:07.014Z,7.23
2022-09-25T00:19:40.225Z,7.22
2022-09-25T00:24:47.355Z,7.22
2022-09-25T00:29:54.922Z,7.22
2022-09-25T00:35:01.857Z,7.24
2022-09-25T00:40:10.372Z,7.25
2022-09-25T00:45:21.038Z,7.26
2022-09-25T00:50:34.384Z,7.28
2022-09-25T00:55:43.642Z,7.28
2022-09-25T01:00:50.779Z,7.29
2022-09-25T01:06:00.671Z,7.29
2022-09-25T01:11:07.956Z,7.29
2022-09-25T01:16:21.932Z,7.29
2022-09-25T01:21:44.124Z,7.28
2022-09-25T01:27:13.435Z,7.27
2022-09-25T01:32:25.554Z,7.25
2022-09-25T01:37:40.905Z,7.23
2022-09-25T01:42:53.267Z,7.22
2022-09-25T01:47:59.919Z,7.19
2022-09-25T01:53:14.817Z,7.16
2022-09-25T01:58:26.664Z,7.14
2022-09-25T02:03:38.716Z,7.11
2022-09-25T02:08:51.384Z,7.09
2022-09-25T02:14:04.415Z,7.05
2022-09-25T02:19:29.986Z,7.01
2022-09-25T02:24:42.764Z,6.97
2022-09-25T02:29:49.823Z,6.92
2022-09-25T02:34:57.083Z,6.87
2022-09-25T02:40:06.215Z,6.82
2022-09-25T02:45:28.829Z,6.78
2022-09-25T02:50:47.755Z,6.73
2022-09-25T02:56:00.207Z,6.70
2022-09-25T03:01:10.391Z,6.68
2022-09-25T03:06:17.496Z,6.67
2022-09-25T03:11:27.285Z,6.66
2022-09-25T03:16:41.046Z,6.66
2022-09-25T03:21:48.255Z,6.67
2022-09-25T03:26:55.454Z,6.67
2022-09-25T03:32:02.793Z,6.67
2022-09-25T03:37:10.442Z,6.68
2022-09-25T03:42:17.365Z,6.69
2022-09-25T03:47:24.576Z,6.69
2022-09-25T03:52:31.642Z,6.69
2022-09-25T03:57:39.044Z,6.69
2022-09-25T04:02:46.057Z,6.69
2022-09-25T04:07:53.238Z,6.68
2022-09-25T04:13:00.483Z,6.67
2022-09-25T04:18:07.855Z,6.64
2022-09-25T04:23:14.884Z,6.63
2022-09-25T04:28:22.657Z,6.61
2022-09-25T04:33:48.504Z,6.59
2022-09-25T04:38:55.977Z,6.57
2022-09-25T04:44:05.905Z,6.56
2022-09-25T04:49:12.815Z,6.56
2022-09-25T04:54:20.136Z,6.56
2022-09-25T04:59:27.324Z,6.57
2022-09-25T05:04:34.544Z,6.59
2022-09-25T05:09:41.397Z,6.62
2022-09-25T05:14:48.454Z,6.66
2022-09-25T05:19:55.444Z,6.70
2022-09-25T05:25:02.482Z,6.75
2022-09-25T05:30:12.097Z,6.79
2022-09-25T05:35:20.535Z,6.85
2022-09-25T05:40:27.760Z,6.91
2022-09-25T05:45:35.497Z,6.96
2022-09-25T05:50:42.630Z,7.03
2022-09-25T05:55:54.924Z,7.09
2022-09-25T06:01:03.689Z,7.18
2022-09-25T06:06:11.034Z,7.25
2022-09-25T06:11:18.063Z,7.33
2022-09-25T06:16:25.575Z,7.41
2022-09-25T06:21:33.040Z,7.51
2022-09-25T06:26:41.306Z,7.61
2022-09-25T06:31:48.217Z,7.70
2022-09-25T06:36:55.037Z,7.81
2022-09-25T06:42:02.198Z,7.90
2022-09-25T06:47:14.917Z,7.99
2022-09-25T06:52:25.597Z,8.05
2022-09-25T06:57:33.116Z,8.10
